Time;durP1;ratioP1;P1;durP2;ratioP2;P2;SDS_P1;SDS_P2;PMS_P1;PMS_P2;Temp;Humidity;BMP_temperature;BMP_pressure;BME280_temperature;BME280_humidity;BME280_pressure;Samples;Min_cycle;Max_cycle;Signal;HPM_P1;HPM_P2
2023/08/29 00:02:08;;;;;;;14.17;13.57;;;15.70;99.90;;;;;;4943447;28;20464;-72
2023/08/29 00:04:35;;;;;;;15.00;14.30;;;15.80;99.90;;;;;;4934467;29;20458;-71
2023/08/29 00:07:01;;;;;;;15.73;14.97;;;15.70;99.90;;;;;;4934492;29;20477;-72
2023/08/29 00:09:28;;;;;;;14.93;14.33;;;15.80;99.90;;;;;;4934536;29;20489;-71
2023/08/29 00:11:56;;;;;;;15.00;14.40;;;15.80;99.90;;;;;;4949261;28;20464;-72
2023/08/29 00:14:24;;;;;;;15.47;14.87;;;15.80;99.90;;;;;;4953511;28;20479;-73
2023/08/29 00:16:50;;;;;;;15.80;15.00;;;15.80;99.90;;;;;;4953379;28;20837;-73
2023/08/29 00:19:17;;;;;;;15.33;14.63;;;15.80;99.90;;;;;;4953286;28;20440;-72
2023/08/29 00:21:44;;;;;;;15.13;14.43;;;15.90;99.90;;;;;;4953377;28;20973;-72
2023/08/29 00:24:10;;;;;;;15.47;14.80;;;15.90;99.90;;;;;;4953349;28;20982;-73
2023/08/29 00:26:37;;;;;;;17.17;15.70;;;15.90;99.90;;;;;;4953317;28;20452;-72
2023/08/29 00:29:04;;;;;;;15.77;14.80;;;15.90;99.90;;;;;;4953140;28;20495;-73
2023/08/29 00:31:32;;;;;;;16.23;15.53;;;15.90;99.90;;;;;;4952979;28;20491;-71
2023/08/29 00:33:58;;;;;;;15.93;15.23;;;15.80;99.90;;;;;;4953334;28;20453;-72
2023/08/29 00:36:25;;;;;;;16.70;15.90;;;15.90;99.90;;;;;;4953171;28;20456;-71
2023/08/29 00:38:52;;;;;;;14.90;14.30;;;15.80;99.90;;;;;;4953051;28;20439;-73
2023/08/29 00:41:18;;;;;;;15.00;14.40;;;15.80;99.90;;;;;;4953050;28;20448;-72
2023/08/29 00:43:45;;;;;;;15.00;14.30;;;15.90;99.90;;;;;;4952935;28;20453;-71
2023/08/29 00:46:12;;;;;;;16.30;15.50;;;15.80;99.90;;;;;;4952988;28;20455;-71
2023/08/29 00:48:40;;;;;;;16.50;15.70;;;15.80;99.90;;;;;;4952887;28;20496;-72
2023/08/29 00:51:06;;;;;;;15.23;14.53;;;15.80;99.90;;;;;;4952941;28;20782;-72
2023/08/29 00:53:35;;;;;;;15.00;14.40;;;15.80;99.90;;;;;;4953031;28;20799;-72
2023/08/29 00:56:02;;;;;;;14.70;14.10;;;15.70;99.90;;;;;;4952891;28;20456;-72
2023/08/29 00:58:29;;;;;;;15.43;14.30;;;15.70;99.90;;;;;;4952061;28;20448;-72
2023/08/29 01:00:56;;;;;;;15.57;14.90;;;15.70;99.90;;;;;;4952810;28;20448;-71
2023/08/29 01:03:23;;;;;;;15.70;15.10;;;15.70;99.90;;;;;;4952779;28;20456;-71
2023/08/29 01:05:51;;;;;;;15.90;15.27;;;15.70;99.90;;;;;;4952737;28;20451;-72
2023/08/29 01:08:18;;;;;;;15.97;15.17;;;15.70;99.90;;;;;;4952620;28;20457;-72
2023/08/29 01:10:56;;;;;;;15.93;15.13;;;15.70;99.90;;;;;;4952631;28;20498;-71
2023/08/29 01:13:30;;;;;;;16.23;15.40;;;15.70;99.90;;;;;;4952721;28;20863;-72
2023/08/29 01:16:01;;;;;;;15.90;15.20;;;15.70;99.90;;;;;;4952642;28;20449;-72
2023/08/29 01:18:32;;;;;;;16.07;15.37;;;15.70;99.90;;;;;;4952606;28;20468;-71
2023/08/29 01:21:11;;;;;;;15.77;15.10;;;15.70;99.90;;;;;;4952806;28;20445;-72
2023/08/29 01:23:44;;;;;;;15.90;15.23;;;15.60;99.90;;;;;;4952642;28;20448;-72
2023/08/29 01:26:14;;;;;;;15.70;15.00;;;15.60;99.90;;;;;;4952694;28;20456;-72
2023/08/29 01:28:43;;;;;;;15.93;15.33;;;15.60;99.90;;;;;;4952506;28;20455;-73
2023/08/29 01:31:11;;;;;;;16.07;15.47;;;15.60;99.90;;;;;;4952199;28;20483;-72
2023/08/29 01:33:38;;;;;;;16.47;15.67;;;15.50;99.90;;;;;;4952590;28;20453;-72
2023/08/29 01:36:05;;;;;;;15.93;15.23;;;15.60;99.90;;;;;;4952377;28;20456;-72
2023/08/29 01:38:32;;;;;;;16.47;15.87;;;15.60;99.90;;;;;;4952399;28;20459;-72
2023/08/29 01:40:59;;;;;;;16.30;15.67;;;15.60;99.90;;;;;;4952491;28;20449;-73
2023/08/29 01:43:27;;;;;;;16.60;15.37;;;15.60;99.90;;;;;;4952561;28;20943;-73
2023/08/29 01:45:54;;;;;;;15.73;15.00;;;15.50;99.90;;;;;;4952328;28;20448;-72
2023/08/29 01:48:20;;;;;;;16.23;15.53;;;15.50;99.90;;;;;;4952355;28;20990;-72
2023/08/29 01:50:48;;;;;;;16.40;15.70;;;15.40;99.90;;;;;;4952261;28;20484;-71
2023/08/29 01:53:14;;;;;;;17.03;16.13;;;15.40;99.90;;;;;;4952387;28;20456;-71
2023/08/29 01:55:43;;;;;;;16.00;15.30;;;15.40;99.90;;;;;;4952316;28;20795;-72
2023/08/29 01:58:11;;;;;;;16.70;16.00;;;15.50;99.90;;;;;;4952287;28;20448;-72
2023/08/29 02:00:39;;;;;;;16.27;15.40;;;15.60;99.90;;;;;;4952123;28;20449;-71
2023/08/29 02:03:06;;;;;;;16.60;15.90;;;15.60;99.90;;;;;;4952211;28;20463;-73
2023/08/29 02:05:33;;;;;;;16.67;15.93;;;15.50;99.90;;;;;;4952056;28;20460;-73
2023/08/29 02:07:59;;;;;;;15.93;15.23;;;15.40;99.90;;;;;;4952309;28;20452;-72
2023/08/29 02:10:26;;;;;;;16.97;16.17;;;15.50;99.90;;;;;;4951809;28;20508;-73
2023/08/29 02:12:53;;;;;;;16.80;15.90;;;15.40;99.90;;;;;;4944845;29;20522;-72
2023/08/29 02:15:19;;;;;;;16.03;15.33;;;15.50;99.90;;;;;;4943598;29;20465;-72
2023/08/29 02:17:47;;;;;;;17.57;16.57;;;15.40;99.90;;;;;;4949827;28;20476;-72
2023/08/29 02:20:14;;;;;;;17.33;16.33;;;15.40;99.90;;;;;;4949247;29;20451;-72
2023/08/29 02:22:41;;;;;;;17.30;16.50;;;15.50;99.90;;;;;;4955569;28;20467;-72
2023/08/29 02:25:08;;;;;;;17.50;16.80;;;15.50;99.90;;;;;;4949291;28;20464;-72
2023/08/29 02:27:35;;;;;;;16.90;16.20;;;15.60;99.90;;;;;;4936968;28;20453;-72
2023/08/29 02:30:03;;;;;;;16.70;16.10;;;15.60;99.90;;;;;;4936671;29;20587;-72
2023/08/29 02:32:30;;;;;;;17.37;16.47;;;15.60;99.90;;;;;;4945591;29;20544;-72
2023/08/29 02:34:58;;;;;;;18.97;17.50;;;15.60;99.90;;;;;;4955412;28;20867;-72
2023/08/29 02:37:25;;;;;;;16.87;16.10;;;15.60;99.90;;;;;;4949046;28;20544;-72
2023/08/29 02:39:52;;;;;;;16.60;16.00;;;15.70;99.90;;;;;;4943838;28;20454;-71
2023/08/29 02:42:19;;;;;;;16.90;16.20;;;15.60;99.90;;;;;;4935823;29;20874;-72
2023/08/29 02:44:45;;;;;;;17.63;16.50;;;15.60;99.90;;;;;;4941099;28;20480;-71
2023/08/29 02:47:12;;;;;;;17.10;16.40;;;15.60;99.90;;;;;;4947449;28;20570;-71
2023/08/29 02:49:38;;;;;;;18.60;17.70;;;15.50;99.90;;;;;;4943913;28;20497;-72
2023/08/29 02:52:07;;;;;;;19.60;18.80;;;15.40;99.90;;;;;;4946493;29;20452;-72
2023/08/29 02:54:33;;;;;;;20.70;19.60;;;15.30;99.90;;;;;;4940778;29;20453;-71
2023/08/29 02:57:00;;;;;;;21.10;20.20;;;15.20;99.90;;;;;;4947260;28;20444;-72
2023/08/29 02:59:27;;;;;;;21.43;20.53;;;15.20;99.90;;;;;;4944128;29;20944;-71
2023/08/29 03:01:54;;;;;;;23.77;22.57;;;15.20;99.90;;;;;;4942066;28;20457;-70
2023/08/29 03:04:21;;;;;;;23.77;22.67;;;15.10;99.90;;;;;;4948470;28;20479;-72
2023/08/29 03:06:47;;;;;;;23.00;21.93;;;15.10;99.90;;;;;;4941934;28;20456;-72
2023/08/29 03:09:16;;;;;;;22.17;21.07;;;15.10;99.90;;;;;;4946014;28;20453;-73
2023/08/29 03:11:42;;;;;;;22.50;21.50;;;15.10;99.90;;;;;;4947547;28;21029;-73
2023/08/29 03:14:09;;;;;;;22.90;21.90;;;15.10;99.90;;;;;;4940443;28;20458;-73
2023/08/29 03:16:36;;;;;;;22.20;21.20;;;15.10;99.90;;;;;;4946730;28;20460;-73
2023/08/29 03:19:03;;;;;;;21.63;20.73;;;15.10;99.90;;;;;;4943571;29;20457;-72
2023/08/29 03:21:30;;;;;;;22.97;21.40;;;15.10;99.90;;;;;;4939874;28;20453;-72
2023/08/29 03:23:57;;;;;;;23.63;22.13;;;15.10;99.90;;;;;;4948288;28;20468;-72
2023/08/29 03:26:25;;;;;;;22.83;21.83;;;15.10;99.90;;;;;;4943096;28;20463;-72
2023/08/29 03:28:51;;;;;;;22.10;21.10;;;15.00;99.90;;;;;;4944150;28;21260;-72
2023/08/29 03:31:18;;;;;;;23.63;22.40;;;15.10;99.90;;;;;;4944133;28;20499;-73
2023/08/29 03:33:45;;;;;;;23.73;22.47;;;15.10;99.90;;;;;;4951016;28;20895;-72
2023/08/29 03:36:14;;;;;;;22.10;21.10;;;15.10;99.90;;;;;;4945116;29;20456;-72
2023/08/29 03:38:41;;;;;;;22.20;21.10;;;15.00;99.90;;;;;;4944671;28;20462;-72
2023/08/29 03:41:08;;;;;;;23.70;22.60;;;15.00;99.90;;;;;;4939916;29;20464;-73
2023/08/29 03:43:37;;;;;;;22.30;21.20;;;15.00;99.90;;;;;;4946586;29;20458;-73
2023/08/29 03:46:05;;;;;;;23.17;22.07;;;15.10;99.90;;;;;;4942630;28;20454;-73
2023/08/29 03:48:32;;;;;;;22.47;21.27;;;15.10;99.90;;;;;;4939122;28;20457;-72
2023/08/29 03:50:59;;;;;;;20.57;19.67;;;15.10;99.90;;;;;;4951355;28;20488;-72
2023/08/29 03:53:26;;;;;;;19.93;19.03;;;15.10;99.90;;;;;;4953929;28;20452;-72
2023/08/29 03:55:52;;;;;;;20.17;19.03;;;15.10;99.90;;;;;;4953659;28;20460;-72
2023/08/29 03:58:19;;;;;;;20.90;19.80;;;15.20;99.90;;;;;;4953566;28;20452;-72
2023/08/29 04:00:47;;;;;;;20.57;19.30;;;15.20;99.90;;;;;;4953798;28;20457;-71
2023/08/29 04:03:14;;;;;;;20.27;19.27;;;15.20;99.90;;;;;;4953785;28;20449;-72
2023/08/29 04:05:40;;;;;;;22.57;20.93;;;15.30;99.90;;;;;;4953717;28;20460;-72
2023/08/29 04:08:07;;;;;;;21.83;20.27;;;15.30;99.90;;;;;;4953468;28;20452;-72
2023/08/29 04:10:39;;;;;;;21.23;19.80;;;15.20;99.90;;;;;;4953344;28;20493;-72
2023/08/29 04:13:06;;;;;;;21.40;20.40;;;15.30;99.90;;;;;;4953447;28;20460;-72
2023/08/29 04:15:33;;;;;;;21.07;19.73;;;15.40;99.90;;;;;;4953390;28;20453;-72
2023/08/29 04:18:01;;;;;;;21.87;20.50;;;15.40;99.90;;;;;;4953398;28;20472;-72
2023/08/29 04:20:28;;;;;;;21.57;20.50;;;15.50;99.90;;;;;;4953342;28;20448;-72
2023/08/29 04:22:55;;;;;;;21.20;20.10;;;15.50;99.90;;;;;;4953356;28;20452;-72
2023/08/29 04:25:26;;;;;;;23.13;21.83;;;15.50;99.90;;;;;;4953427;28;20452;-73
2023/08/29 04:27:52;;;;;;;23.57;22.07;;;15.50;99.90;;;;;;4953090;28;20511;-72
2023/08/29 04:30:19;;;;;;;23.53;21.73;;;15.50;99.90;;;;;;4952717;28;20500;-73
2023/08/29 04:32:48;;;;;;;23.67;22.17;;;15.60;99.90;;;;;;4952976;28;20457;-73
2023/08/29 04:35:16;;;;;;;23.67;22.20;;;15.50;99.90;;;;;;4953247;28;20950;-73
2023/08/29 04:37:46;;;;;;;23.87;22.50;;;15.50;99.90;;;;;;4953359;28;20490;-72
2023/08/29 04:40:13;;;;;;;23.33;22.10;;;15.60;99.90;;;;;;4953155;28;20457;-72
2023/08/29 04:42:40;;;;;;;24.77;23.40;;;15.60;99.90;;;;;;4952907;28;20456;-72
2023/08/29 04:45:08;;;;;;;25.17;23.47;;;15.60;99.90;;;;;;4952990;28;20463;-73
2023/08/29 04:47:35;;;;;;;25.23;23.63;;;15.60;99.90;;;;;;4952938;28;20866;-73
2023/08/29 04:50:03;;;;;;;25.30;23.83;;;15.70;99.90;;;;;;4951739;28;20828;-72
2023/08/29 04:52:31;;;;;;;24.10;22.77;;;15.60;99.90;;;;;;4930508;29;20457;-71
2023/08/29 04:54:58;;;;;;;26.07;24.47;;;15.50;99.90;;;;;;4943328;28;20855;-71
2023/08/29 04:57:25;;;;;;;26.30;24.30;;;15.40;99.90;;;;;;4934329;29;20445;-71
2023/08/29 04:59:52;;;;;;;27.27;25.53;;;15.30;99.90;;;;;;4952529;28;20975;-71
2023/08/29 05:02:18;;;;;;;28.43;26.47;;;15.40;99.90;;;;;;4952805;28;20975;-71
2023/08/29 05:04:47;;;;;;;26.70;24.87;;;15.30;99.90;;;;;;4952841;28;20630;-72
2023/08/29 05:07:14;;;;;;;28.07;26.27;;;15.40;99.90;;;;;;4948993;28;20509;-72
2023/08/29 05:09:42;;;;;;;26.50;24.90;;;15.40;99.90;;;;;;4933589;29;20893;-71
2023/08/29 05:12:10;;;;;;;27.70;25.83;;;15.50;99.90;;;;;;4933506;29;20468;-71
2023/08/29 05:14:37;;;;;;;25.90;24.40;;;15.50;99.90;;;;;;4933359;29;20814;-72
2023/08/29 05:17:04;;;;;;;25.50;24.00;;;15.70;99.90;;;;;;4933341;29;20497;-72
2023/08/29 05:19:31;;;;;;;25.70;24.20;;;15.70;99.90;;;;;;4933330;29;20445;-72
2023/08/29 05:21:58;;;;;;;25.97;23.80;;;15.80;99.90;;;;;;4933606;29;20472;-72
2023/08/29 05:24:26;;;;;;;25.50;24.00;;;15.80;99.90;;;;;;4933601;29;20445;-72
2023/08/29 05:26:54;;;;;;;25.40;24.00;;;15.90;99.90;;;;;;4933359;29;20455;-72
2023/08/29 05:29:21;;;;;;;24.37;23.17;;;16.00;99.90;;;;;;4933240;29;20445;-72
2023/08/29 05:31:47;;;;;;;28.03;26.40;;;16.10;99.90;;;;;;4933035;29;20515;-73
2023/08/29 05:34:14;;;;;;;28.17;26.37;;;16.10;99.90;;;;;;4933469;29;20448;-72
2023/08/29 05:36:41;;;;;;;30.00;28.40;;;16.00;99.90;;;;;;4933301;29;20461;-73
2023/08/29 05:39:08;;;;;;;29.07;27.20;;;16.00;99.90;;;;;;4933362;29;20823;-73
2023/08/29 05:41:34;;;;;;;29.20;27.53;;;16.00;99.90;;;;;;4933099;29;20453;-73
2023/08/29 05:44:03;;;;;;;29.67;27.87;;;16.10;99.90;;;;;;4933126;29;20456;-73
2023/08/29 05:46:29;;;;;;;28.70;27.10;;;16.00;99.90;;;;;;4950615;29;20468;-74
2023/08/29 05:48:57;;;;;;;28.33;26.73;;;15.90;99.90;;;;;;4950594;28;20457;-72
2023/08/29 05:51:24;;;;;;;29.13;27.00;;;15.90;99.90;;;;;;4936778;29;21023;-72
2023/08/29 05:53:51;;;;;;;28.83;26.93;;;15.80;99.90;;;;;;4944907;29;20965;-74
2023/08/29 05:56:17;;;;;;;26.97;25.47;;;15.80;99.90;;;;;;4950412;28;20483;-72
2023/08/29 05:58:44;;;;;;;26.77;25.17;;;15.80;99.90;;;;;;4944375;29;20460;-73
2023/08/29 06:01:12;;;;;;;26.77;25.10;;;15.70;99.90;;;;;;4943079;28;20963;-73
2023/08/29 06:03:39;;;;;;;28.03;26.17;;;15.80;99.90;;;;;;4926783;29;20457;-73
2023/08/29 06:06:06;;;;;;;26.43;24.17;;;15.90;99.90;;;;;;4945573;28;20449;-72
2023/08/29 06:08:34;;;;;;;27.50;25.80;;;16.00;99.90;;;;;;4946748;28;21031;-72
2023/08/29 06:11:01;;;;;;;28.90;26.70;;;16.00;99.90;;;;;;4936508;29;20492;-72
2023/08/29 06:13:27;;;;;;;32.07;30.17;;;15.90;99.90;;;;;;4937333;29;20472;-71
2023/08/29 06:15:54;;;;;;;40.50;38.00;;;15.80;99.90;;;;;;4940660;28;20456;-68
2023/08/29 06:18:22;;;;;;;45.07;42.20;;;15.70;99.90;;;;;;4941248;28;20487;-68
2023/08/29 06:20:49;;;;;;;46.83;43.70;;;15.60;99.90;;;;;;4943205;28;20456;-68
2023/08/29 06:23:16;;;;;;;48.60;45.50;;;15.60;99.90;;;;;;4943912;28;20453;-69
2023/08/29 06:25:42;;;;;;;47.83;44.53;;;15.50;99.90;;;;;;4944878;28;20452;-69
2023/08/29 06:28:09;;;;;;;52.90;49.00;;;15.50;99.90;;;;;;4949055;28;20951;-69
2023/08/29 06:30:37;;;;;;;50.37;46.57;;;15.40;99.90;;;;;;4942690;28;20501;-70
2023/08/29 06:33:06;;;;;;;51.87;47.80;;;15.40;99.90;;;;;;4944462;28;20879;-70
2023/08/29 06:35:38;;;;;;;53.93;50.13;;;15.30;99.90;;;;;;4950808;28;20464;-68
2023/08/29 06:38:05;;;;;;;51.97;48.20;;;15.20;99.90;;;;;;4946833;28;21028;-68
2023/08/29 06:40:31;;;;;;;51.20;47.50;;;15.20;99.90;;;;;;4940105;29;20503;-68
2023/08/29 06:42:58;;;;;;;54.13;50.43;;;15.20;99.90;;;;;;4951499;28;20476;-69
2023/08/29 06:45:25;;;;;;;57.67;53.03;;;15.20;99.90;;;;;;4945295;28;20556;-69
2023/08/29 06:47:52;;;;;;;54.27;50.13;;;15.10;99.90;;;;;;4941950;28;20452;-70
2023/08/29 06:50:19;;;;;;;55.83;51.63;;;15.10;99.90;;;;;;4946564;28;20512;-69
2023/08/29 06:52:47;;;;;;;56.67;52.67;;;15.20;99.90;;;;;;4936634;29;20471;-70
2023/08/29 06:55:14;;;;;;;54.20;50.27;;;15.30;99.90;;;;;;4939664;28;20910;-70
2023/08/29 06:57:40;;;;;;;56.33;52.03;;;15.30;99.90;;;;;;4934621;29;20536;-69
2023/08/29 07:00:10;;;;;;;57.00;52.50;;;15.40;99.90;;;;;;4940260;28;20473;-70
2023/08/29 07:02:37;;;;;;;56.03;51.87;;;15.40;99.90;;;;;;4947395;28;20461;-70
2023/08/29 07:05:04;;;;;;;59.10;54.87;;;15.40;99.90;;;;;;4940688;28;20453;-70
2023/08/29 07:07:31;;;;;;;57.57;52.97;;;15.60;99.90;;;;;;4941544;28;20457;-70
2023/08/29 07:09:59;;;;;;;56.40;52.00;;;15.70;99.90;;;;;;4953371;28;20448;-71
2023/08/29 07:12:26;;;;;;;57.10;52.83;;;15.70;99.90;;;;;;4945983;28;20493;-71
2023/08/29 07:14:52;;;;;;;56.17;52.03;;;15.90;99.90;;;;;;4940240;29;20465;-70
2023/08/29 07:17:19;;;;;;;55.77;51.47;;;15.80;99.90;;;;;;4944619;28;20485;-71
2023/08/29 07:19:46;;;;;;;56.80;52.53;;;15.90;99.90;;;;;;4943354;28;20457;-72
2023/08/29 07:22:12;;;;;;;55.60;51.97;;;16.00;99.90;;;;;;4939203;29;20585;-71
2023/08/29 07:24:39;;;;;;;56.80;52.70;;;16.00;99.90;;;;;;4943802;28;20460;-71
2023/08/29 07:27:07;;;;;;;57.87;53.73;;;16.10;99.90;;;;;;4944799;28;20544;-72
2023/08/29 07:29:34;;;;;;;54.13;50.33;;;15.90;99.90;;;;;;4941811;28;20463;-73
2023/08/29 07:32:01;;;;;;;54.63;50.67;;;15.90;99.90;;;;;;4943014;29;20502;-72
2023/08/29 07:34:27;;;;;;;52.90;49.10;;;16.00;99.90;;;;;;4944624;29;20458;-72
2023/08/29 07:36:54;;;;;;;53.37;49.67;;;15.90;99.90;;;;;;4938177;28;20453;-72
2023/08/29 07:39:21;;;;;;;52.73;49.20;;;15.90;99.90;;;;;;4943651;28;20840;-71
2023/08/29 07:41:48;;;;;;;52.77;49.30;;;15.90;99.90;;;;;;4939011;28;20457;-71
2023/08/29 07:44:16;;;;;;;52.40;48.50;;;15.80;99.90;;;;;;4937065;29;20485;-70
2023/08/29 07:46:43;;;;;;;53.77;49.80;;;15.70;99.90;;;;;;4953970;28;20448;-71
2023/08/29 07:49:13;;;;;;;53.63;49.77;;;15.70;99.90;;;;;;4954018;28;20456;-70
2023/08/29 07:51:40;;;;;;;51.90;48.13;;;15.70;99.90;;;;;;4933528;28;20485;-71
2023/08/29 07:54:06;;;;;;;52.03;48.20;;;15.50;99.90;;;;;;4934596;29;20457;-70
2023/08/29 07:56:34;;;;;;;52.47;48.87;;;15.50;99.90;;;;;;4934744;29;20449;-70
2023/08/29 07:59:00;;;;;;;52.00;47.97;;;15.60;99.90;;;;;;4934525;29;20445;-71
2023/08/29 08:01:28;;;;;;;51.80;48.20;;;15.70;99.90;;;;;;4934610;29;20872;-71
2023/08/29 08:03:55;;;;;;;51.20;47.70;;;15.70;99.90;;;;;;4934403;29;20450;-71
2023/08/29 08:06:22;;;;;;;54.03;49.73;;;15.70;99.90;;;;;;4934603;29;20868;-71
2023/08/29 08:08:49;;;;;;;53.27;48.97;;;15.70;99.90;;;;;;4933847;29;20453;-72
2023/08/29 08:11:15;;;;;;;52.23;48.40;;;15.60;99.90;;;;;;4934328;29;20489;-72
2023/08/29 08:13:42;;;;;;;53.37;49.63;;;15.70;99.90;;;;;;4934323;29;20449;-72
2023/08/29 08:16:09;;;;;;;51.40;47.80;;;15.80;99.90;;;;;;4934274;29;20449;-72
2023/08/29 08:18:37;;;;;;;52.80;48.87;;;15.90;99.90;;;;;;4934134;29;20473;-71
2023/08/29 08:21:05;;;;;;;51.97;48.17;;;16.00;99.90;;;;;;4934117;29;20450;-72
2023/08/29 08:23:32;;;;;;;52.20;48.10;;;16.00;99.90;;;;;;4934130;29;20468;-71
2023/08/29 08:25:58;;;;;;;51.47;48.00;;;16.10;99.90;;;;;;4934252;29;20445;-72
2023/08/29 08:28:25;;;;;;;51.20;47.60;;;16.40;99.90;;;;;;4934256;29;20548;-71
2023/08/29 08:30:52;;;;;;;52.67;49.27;;;16.60;99.90;;;;;;4933954;29;20488;-71
2023/08/29 08:33:19;;;;;;;51.60;48.10;;;16.60;99.90;;;;;;4934088;29;20450;-71
2023/08/29 08:35:47;;;;;;;53.77;50.13;;;16.40;99.90;;;;;;4934145;29;20452;-71
2023/08/29 08:38:13;;;;;;;54.40;50.57;;;16.30;99.90;;;;;;4934025;29;20450;-71
2023/08/29 08:40:41;;;;;;;54.13;50.53;;;16.20;99.90;;;;;;4933969;29;20821;-72
2023/08/29 08:43:10;;;;;;;53.20;49.80;;;16.40;99.90;;;;;;4933712;29;20814;-72
2023/08/29 08:45:38;;;;;;;54.37;50.77;;;16.60;99.90;;;;;;4933667;29;20456;-72
2023/08/29 08:48:05;;;;;;;53.97;50.40;;;16.50;99.90;;;;;;4933869;29;20472;-72
2023/08/29 08:50:32;;;;;;;55.17;51.67;;;16.50;99.90;;;;;;4933916;29;20450;-71
2023/08/29 08:53:01;;;;;;;53.03;49.50;;;16.60;99.90;;;;;;4941268;29;20493;-70
2023/08/29 08:55:29;;;;;;;53.17;49.30;;;16.40;99.90;;;;;;4947310;29;20461;-71
2023/08/29 08:57:57;;;;;;;54.63;50.70;;;16.40;99.90;;;;;;4952669;28;20449;-71
2023/08/29 09:00:24;;;;;;;56.17;52.57;;;16.30;99.90;;;;;;4950753;28;20468;-71
2023/08/29 09:02:52;;;;;;;53.93;49.87;;;16.30;99.90;;;;;;4952765;28;20455;-71
2023/08/29 09:05:19;;;;;;;54.90;51.43;;;16.40;99.90;;;;;;4952848;28;20458;-71
2023/08/29 09:07:46;;;;;;;56.40;53.00;;;16.40;99.90;;;;;;4952184;28;20452;-71
2023/08/29 09:10:15;;;;;;;52.33;48.90;;;16.40;99.90;;;;;;4933577;29;20461;-71
2023/08/29 09:12:48;;;;;;;52.90;49.40;;;16.40;99.90;;;;;;4933624;29;20525;-71
2023/08/29 09:15:16;;;;;;;54.23;50.43;;;16.30;99.90;;;;;;4933591;29;20485;-72
2023/08/29 09:17:47;;;;;;;50.00;46.50;;;16.40;99.90;;;;;;4933626;29;20497;-72
2023/08/29 09:20:14;;;;;;;50.07;46.40;;;16.40;99.90;;;;;;4932766;29;20454;-72
2023/08/29 09:22:42;;;;;;;53.10;49.67;;;16.30;99.90;;;;;;4933511;29;20478;-72
2023/08/29 09:25:09;;;;;;;52.90;49.53;;;16.20;99.90;;;;;;4933384;29;20449;-72
2023/08/29 09:27:41;;;;;;;53.67;49.87;;;16.20;99.90;;;;;;4933193;29;20449;-72
2023/08/29 09:30:10;;;;;;;57.17;53.20;;;16.40;99.90;;;;;;4933253;29;20511;-72
2023/08/29 09:32:37;;;;;;;54.67;50.60;;;16.60;99.90;;;;;;4931347;29;20496;-72
2023/08/29 09:35:05;;;;;;;51.63;48.33;;;16.50;99.90;;;;;;4933179;29;20939;-72
2023/08/29 09:37:33;;;;;;;54.03;50.23;;;16.50;99.90;;;;;;4933124;29;20449;-72
2023/08/29 09:40:01;;;;;;;55.97;52.23;;;16.50;99.90;;;;;;4934143;28;20819;-72
2023/08/29 09:42:29;;;;;;;54.10;50.23;;;16.40;99.90;;;;;;4935218;29;20434;-72
2023/08/29 09:44:57;;;;;;;52.10;48.60;;;16.30;99.90;;;;;;4932632;29;20442;-72
2023/08/29 09:47:24;;;;;;;52.40;48.70;;;16.30;99.90;;;;;;4932492;29;20476;-73
2023/08/29 09:49:50;;;;;;;52.43;48.50;;;16.20;99.90;;;;;;4934027;29;20449;-72
2023/08/29 09:52:18;;;;;;;54.23;50.20;;;16.30;99.90;;;;;;4933586;29;20481;-72
2023/08/29 09:54:48;;;;;;;53.23;49.53;;;16.30;99.90;;;;;;4932646;29;20438;-72
2023/08/29 09:57:18;;;;;;;55.70;51.57;;;16.30;99.90;;;;;;4930434;29;20454;-73
2023/08/29 09:59:45;;;;;;;56.07;52.27;;;16.30;99.90;;;;;;4932470;29;20445;-73
2023/08/29 10:02:18;;;;;;;54.40;50.37;;;16.40;99.90;;;;;;4930023;29;20477;-73
2023/08/29 10:04:47;;;;;;;55.40;51.20;;;16.50;99.90;;;;;;4932815;29;20460;-72
2023/08/29 10:07:16;;;;;;;55.10;51.30;;;16.60;99.90;;;;;;4933098;29;20456;-72
2023/08/29 10:09:44;;;;;;;53.30;49.80;;;16.50;99.90;;;;;;4933067;29;20454;-72
2023/08/29 10:12:11;;;;;;;53.90;50.20;;;16.50;99.90;;;;;;4932764;29;20489;-73
2023/08/29 10:14:39;;;;;;;54.90;51.17;;;16.60;99.90;;;;;;4932953;29;20453;-71
2023/08/29 10:17:07;;;;;;;55.27;51.40;;;16.60;99.90;;;;;;4932866;29;20484;-72
2023/08/29 10:19:38;;;;;;;54.40;50.70;;;16.90;99.90;;;;;;4937778;29;20464;-71
2023/08/29 10:22:07;;;;;;;58.10;54.10;;;16.90;99.90;;;;;;4939103;29;20956;-72
2023/08/29 10:24:35;;;;;;;54.43;51.03;;;17.30;99.90;;;;;;4947866;28;20469;-72
2023/08/29 10:27:02;;;;;;;58.20;54.60;;;17.70;99.90;;;;;;4940836;29;20468;-73
2023/08/29 10:29:29;;;;;;;55.33;51.83;;;17.90;99.90;;;;;;4939151;28;20461;-71
2023/08/29 10:31:56;;;;;;;56.60;53.00;;;18.00;99.90;;;;;;4935147;29;20497;-71
2023/08/29 10:34:24;;;;;;;57.40;53.77;;;18.20;99.90;;;;;;4936081;29;20480;-72
2023/08/29 10:36:52;;;;;;;55.70;52.20;;;18.40;99.90;;;;;;4936006;29;20849;-73
2023/08/29 10:39:20;;;;;;;53.67;50.63;;;18.60;99.90;;;;;;4935947;29;20449;-72
2023/08/29 10:41:47;;;;;;;54.03;50.67;;;18.90;99.90;;;;;;4935843;29;20453;-72
2023/08/29 10:44:25;;;;;;;47.60;45.03;;;19.30;99.90;;;;;;4935804;29;20461;-71
2023/08/29 10:46:52;;;;;;;43.00;40.87;;;19.70;99.90;;;;;;4935663;29;20480;-73
2023/08/29 10:49:21;;;;;;;37.27;35.37;;;20.20;99.90;;;;;;4935760;29;20450;-73
2023/08/29 10:54:46;;;;;;;31.70;29.90;;;20.40;99.90;;;;;;5128837;27;20474;-73
2023/08/29 10:57:27;;;;;;;31.23;29.37;;;21.30;99.90;;;;;;5096267;28;20469;-73
2023/08/29 10:59:54;;;;;;;27.00;25.57;;;21.30;99.90;;;;;;5102691;28;20494;-73
2023/08/29 11:02:26;;;;;;;26.03;24.53;;;21.50;99.90;;;;;;5105993;28;20457;-78
2023/08/29 11:08:21;;;;;;;27.80;26.30;;;20.80;99.90;;;;;;5073968;28;20457;-78
2023/08/29 11:11:17;;;;;;;26.67;25.37;;;20.50;99.90;;;;;;5096575;28;20482;-78
2023/08/29 11:13:58;;;;;;;27.00;25.50;;;19.70;99.90;;;;;;5106242;28;20498;-79
2023/08/29 11:16:25;;;;;;;28.10;26.60;;;19.20;99.90;;;;;;5098476;28;20450;-78
2023/08/29 11:19:11;;;;;;;25.90;24.40;;;18.70;99.90;;;;;;5087812;28;20441;-78
2023/08/29 11:21:38;;;;;;;27.03;25.43;;;18.40;99.90;;;;;;5087433;28;20442;-77
2023/08/29 11:24:06;;;;;;;27.77;26.27;;;18.20;99.90;;;;;;5087530;28;20450;-77
2023/08/29 11:26:36;;;;;;;28.50;26.70;;;18.20;99.90;;;;;;5087394;28;20457;-75
2023/08/29 11:29:05;;;;;;;29.90;28.30;;;18.30;99.90;;;;;;5087325;28;20523;-76
2023/08/29 11:31:32;;;;;;;31.50;29.73;;;18.00;99.90;;;;;;5094673;28;20515;-77
2023/08/29 11:33:59;;;;;;;30.47;28.77;;;18.10;99.90;;;;;;5095250;28;20866;-76
2023/08/29 11:36:32;;;;;;;36.03;33.90;;;18.10;99.90;;;;;;5098473;28;20449;-74
2023/08/29 11:38:59;;;;;;;38.27;35.90;;;18.10;99.90;;;;;;5096543;28;20445;-74
2023/08/29 11:41:28;;;;;;;38.97;36.63;;;17.90;99.90;;;;;;5097765;28;20436;-76
2023/08/29 11:43:57;;;;;;;37.67;35.50;;;17.90;99.90;;;;;;5096473;28;20434;-75
2023/08/29 11:46:24;;;;;;;43.80;41.20;;;18.00;99.90;;;;;;5095819;28;20492;-76
2023/08/29 11:48:50;;;;;;;46.33;43.63;;;17.80;99.90;;;;;;5097511;28;20451;-76
2023/08/29 11:51:17;;;;;;;43.17;40.73;;;17.60;99.90;;;;;;5091678;28;20470;-76
2023/08/29 11:53:44;;;;;;;47.13;44.53;;;17.70;99.90;;;;;;5095322;28;20473;-77
2023/08/29 11:56:11;;;;;;;47.23;44.63;;;17.80;99.90;;;;;;5097334;28;20438;-75
2023/08/29 11:58:39;;;;;;;48.33;45.47;;;17.70;99.90;;;;;;5095848;28;20485;-75
2023/08/29 12:01:08;;;;;;;46.40;43.80;;;17.80;99.90;;;;;;5096014;28;20446;-76
2023/08/29 12:03:36;;;;;;;48.27;45.57;;;17.70;99.90;;;;;;5097849;28;20539;-77
2023/08/29 12:06:05;;;;;;;51.70;48.60;;;17.80;99.90;;;;;;5083654;28;20466;-78
2023/08/29 12:08:39;;;;;;;53.27;50.07;;;17.80;99.90;;;;;;5084690;28;20866;-77
2023/08/29 12:11:07;;;;;;;52.40;49.50;;;18.10;99.90;;;;;;5087909;28;20914;-78
2023/08/29 12:13:34;;;;;;;49.40;46.80;;;18.10;99.90;;;;;;5080482;28;20792;-79
2023/08/29 12:16:02;;;;;;;50.47;47.33;;;18.30;99.90;;;;;;5100152;28;20446;-79
2023/08/29 12:18:32;;;;;;;49.73;46.93;;;18.40;99.90;;;;;;5094498;28;20467;-79
2023/08/29 12:21:16;;;;;;;50.53;47.83;;;18.50;99.90;;;;;;5076524;28;20496;-78
2023/08/29 12:23:44;;;;;;;49.53;46.60;;;18.40;99.90;;;;;;5075066;28;21055;-77
2023/08/29 12:26:11;;;;;;;51.00;48.30;;;18.20;99.90;;;;;;5073880;28;20447;-77
2023/08/29 12:28:38;;;;;;;50.30;47.57;;;18.30;99.90;;;;;;5073541;28;20518;-76
2023/08/29 12:31:05;;;;;;;51.97;49.17;;;18.30;99.90;;;;;;5074531;28;20986;-77
2023/08/29 12:33:33;;;;;;;51.80;48.90;;;18.50;99.90;;;;;;5080292;28;20490;-77
2023/08/29 12:36:01;;;;;;;54.40;51.30;;;18.60;99.90;;;;;;5084144;28;20794;-78
2023/08/29 12:38:28;;;;;;;53.53;50.03;;;18.80;99.90;;;;;;5086105;28;20959;-78